Time;durP1;ratioP1;P1;durP2;ratioP2;P2;SDS_P1;SDS_P2;PMS_P1;PMS_P2;Temp;Humidity;BMP_temperature;BMP_pressure;BME280_temperature;BME280_humidity;BME280_pressure;Samples;Min_cycle;Max_cycle;Signal;HPM_P1;HPM_P2
2023/09/30 00:01:38;;;;;;;18.73;6.30;;;17.50;99.90;;;;;;5051873;28;20209;-71
2023/09/30 00:04:05;;;;;;;15.50;7.43;;;17.50;99.90;;;;;;5051614;28;20456;-72
2023/09/30 00:06:30;;;;;;;16.53;7.17;;;17.40;99.90;;;;;;5053439;28;20188;-71
2023/09/30 00:08:57;;;;;;;20.50;6.60;;;17.40;99.90;;;;;;5053257;28;20413;-71
2023/09/30 00:11:22;;;;;;;12.07;5.40;;;17.30;99.90;;;;;;5051542;28;20285;-71
2023/09/30 00:13:49;;;;;;;16.40;6.20;;;17.30;99.90;;;;;;5052855;28;20937;-71
2023/09/30 00:16:17;;;;;;;18.20;6.13;;;17.20;99.90;;;;;;5052728;28;20201;-71
2023/09/30 00:18:43;;;;;;;13.87;5.30;;;17.20;99.90;;;;;;5052781;28;20407;-72
2023/09/30 00:21:08;;;;;;;13.43;5.30;;;17.10;99.90;;;;;;5052757;28;20421;-71
2023/09/30 00:23:34;;;;;;;15.23;7.57;;;17.10;99.90;;;;;;5051619;28;20410;-71
2023/09/30 00:26:00;;;;;;;11.80;4.67;;;17.10;99.90;;;;;;5052566;28;20677;-71
2023/09/30 00:28:26;;;;;;;12.83;5.53;;;17.00;99.90;;;;;;5052539;28;20221;-71
2023/09/30 00:30:52;;;;;;;12.70;5.23;;;17.00;99.90;;;;;;5034635;28;20795;-71
2023/09/30 00:33:17;;;;;;;12.50;5.60;;;17.00;99.90;;;;;;5052567;28;20230;-71
2023/09/30 00:35:43;;;;;;;16.90;6.00;;;17.00;99.90;;;;;;5052408;28;20202;-71
2023/09/30 00:38:10;;;;;;;17.87;6.93;;;17.10;99.90;;;;;;5051018;28;20679;-71
2023/09/30 00:40:35;;;;;;;12.40;5.73;;;17.20;99.90;;;;;;5052356;28;20176;-71
2023/09/30 00:43:01;;;;;;;15.93;6.07;;;17.20;99.90;;;;;;5052380;28;20784;-71
2023/09/30 00:45:28;;;;;;;11.13;4.40;;;17.20;99.90;;;;;;5052316;28;20208;-71
2023/09/30 00:47:54;;;;;;;17.07;6.40;;;17.20;99.90;;;;;;5052190;28;20204;-71
2023/09/30 00:50:21;;;;;;;9.00;4.43;;;17.20;99.90;;;;;;5052185;28;20424;-71
2023/09/30 00:52:48;;;;;;;12.20;4.87;;;17.10;99.90;;;;;;5052156;28;20172;-71
2023/09/30 00:55:15;;;;;;;12.50;5.40;;;17.20;99.90;;;;;;5052090;28;20432;-72
2023/09/30 00:57:41;;;;;;;11.20;5.23;;;17.20;99.90;;;;;;5052024;28;20444;-71
2023/09/30 01:00:11;;;;;;;13.43;6.50;;;17.20;99.90;;;;;;5052048;28;20613;-71
2023/09/30 01:02:41;;;;;;;13.70;4.90;;;17.30;99.90;;;;;;5050685;28;20488;-71
2023/09/30 01:05:07;;;;;;;15.07;5.60;;;17.30;99.90;;;;;;5051947;28;20544;-71
2023/09/30 01:07:34;;;;;;;13.57;5.07;;;17.30;99.90;;;;;;5051812;28;20468;-71
2023/09/30 01:09:59;;;;;;;12.40;4.70;;;17.30;99.90;;;;;;5051818;28;20449;-71
2023/09/30 01:12:25;;;;;;;12.60;4.57;;;17.30;99.90;;;;;;5050601;28;20559;-71
2023/09/30 01:14:56;;;;;;;13.57;4.60;;;17.30;99.90;;;;;;5051738;28;20200;-71
2023/09/30 01:17:22;;;;;;;12.37;5.10;;;17.30;99.90;;;;;;5050446;28;20179;-71
2023/09/30 01:19:49;;;;;;;11.70;5.10;;;17.30;99.90;;;;;;5051765;28;20517;-72
2023/09/30 01:22:16;;;;;;;13.90;5.27;;;17.20;99.90;;;;;;5051741;28;20259;-72
2023/09/30 01:24:42;;;;;;;11.03;4.97;;;17.10;99.90;;;;;;5050246;28;20540;-71
2023/09/30 01:27:09;;;;;;;12.63;5.40;;;17.10;99.90;;;;;;5050154;28;20887;-71
2023/09/30 01:29:38;;;;;;;15.50;4.87;;;17.10;99.90;;;;;;5051452;28;20405;-71
2023/09/30 01:32:05;;;;;;;13.80;4.37;;;17.10;99.90;;;;;;5050093;28;20947;-71
2023/09/30 01:34:30;;;;;;;10.60;4.67;;;17.10;99.90;;;;;;5051164;28;20505;-71
2023/09/30 01:36:56;;;;;;;10.53;4.43;;;17.10;99.90;;;;;;5051412;28;20916;-71
2023/09/30 01:39:22;;;;;;;15.40;5.53;;;17.10;99.90;;;;;;5051424;28;20187;-71
2023/09/30 01:41:48;;;;;;;13.47;5.00;;;17.10;99.90;;;;;;5051355;28;20180;-71
2023/09/30 01:44:13;;;;;;;12.60;5.23;;;17.10;99.90;;;;;;5051158;28;20934;-71
2023/09/30 01:46:39;;;;;;;15.10;5.47;;;17.10;99.90;;;;;;5051151;28;20468;-71
2023/09/30 01:49:04;;;;;;;13.67;5.80;;;17.10;99.90;;;;;;5033454;28;20298;-71
2023/09/30 01:51:30;;;;;;;14.07;5.57;;;17.10;99.90;;;;;;5050063;28;20173;-71
2023/09/30 01:53:55;;;;;;;17.97;5.50;;;17.10;99.90;;;;;;5051259;28;20660;-71
2023/09/30 01:56:21;;;;;;;14.53;5.70;;;17.10;99.90;;;;;;5051032;28;20195;-72
2023/09/30 01:58:47;;;;;;;19.73;7.13;;;17.10;99.90;;;;;;5049836;28;20558;-71
2023/09/30 02:01:13;;;;;;;10.30;4.70;;;17.10;99.90;;;;;;5051112;28;20845;-71
2023/09/30 02:03:38;;;;;;;14.70;5.20;;;17.10;99.90;;;;;;5051435;28;20267;-71
2023/09/30 02:06:04;;;;;;;15.70;5.83;;;17.00;99.90;;;;;;5051028;28;20248;-71
2023/09/30 02:08:30;;;;;;;15.97;7.07;;;17.10;99.90;;;;;;5033140;28;20592;-71
2023/09/30 02:10:56;;;;;;;14.50;4.87;;;17.00;99.90;;;;;;5051032;28;20428;-71
2023/09/30 02:20:15;;;;;;;15.33;5.73;;;16.90;99.90;;;;;;5051597;28;20385;-71
2023/09/30 02:22:41;;;;;;;11.40;4.90;;;16.80;99.90;;;;;;5050976;28;20795;-71
2023/09/30 02:25:07;;;;;;;13.37;5.37;;;16.70;99.90;;;;;;5050831;28;20444;-72
2023/09/30 02:27:34;;;;;;;14.57;5.97;;;16.60;99.90;;;;;;5050806;28;20520;-71
2023/09/30 02:29:59;;;;;;;9.77;4.40;;;16.60;99.90;;;;;;5051291;28;20409;-71
2023/09/30 02:32:25;;;;;;;11.70;4.97;;;16.50;99.90;;;;;;5049678;28;20927;-71
2023/09/30 02:34:51;;;;;;;13.97;5.43;;;16.50;99.90;;;;;;5049490;28;20201;-71
2023/09/30 02:37:18;;;;;;;11.40;5.23;;;16.50;99.90;;;;;;5050868;28;20242;-71
2023/09/30 02:39:44;;;;;;;10.23;4.37;;;16.40;99.90;;;;;;5050766;28;20671;-71
2023/09/30 02:42:10;;;;;;;15.73;6.03;;;16.40;99.90;;;;;;5050793;28;20423;-71
2023/09/30 02:44:36;;;;;;;10.50;5.33;;;16.40;99.90;;;;;;5049248;28;20449;-71
2023/09/30 02:47:01;;;;;;;10.50;5.07;;;16.40;99.90;;;;;;5051966;28;20595;-71
2023/09/30 02:49:27;;;;;;;15.90;6.53;;;16.40;99.90;;;;;;5053191;28;20298;-71
2023/09/30 02:51:53;;;;;;;13.60;5.47;;;16.40;99.90;;;;;;5054515;28;20176;-71
2023/09/30 02:54:18;;;;;;;13.27;5.13;;;16.40;99.90;;;;;;5053243;28;20192;-71
2023/09/30 02:56:46;;;;;;;14.10;5.87;;;16.40;99.90;;;;;;5053110;28;20204;-71
2023/09/30 02:59:13;;;;;;;13.23;5.70;;;16.40;99.90;;;;;;5054371;28;20289;-71
2023/09/30 03:01:38;;;;;;;10.77;5.90;;;16.40;99.90;;;;;;5054266;28;20431;-72
2023/09/30 03:04:06;;;;;;;13.87;5.60;;;16.30;99.90;;;;;;5054214;28;20427;-72
2023/09/30 03:06:36;;;;;;;14.27;5.80;;;16.40;99.90;;;;;;5052978;28;20653;-71
2023/09/30 03:09:04;;;;;;;14.87;6.10;;;16.40;99.90;;;;;;5054162;28;20408;-71
2023/09/30 03:11:30;;;;;;;12.10;4.93;;;16.30;99.90;;;;;;5052879;28;20430;-71
2023/09/30 03:13:55;;;;;;;13.70;5.13;;;16.30;99.90;;;;;;5054332;28;20450;-71
2023/09/30 03:16:21;;;;;;;16.10;6.30;;;16.30;99.90;;;;;;5053924;28;20465;-71
2023/09/30 03:18:46;;;;;;;14.13;5.57;;;16.20;99.90;;;;;;5052752;28;20184;-71
2023/09/30 03:21:15;;;;;;;14.70;5.63;;;16.20;99.90;;;;;;5053860;28;20275;-71
2023/09/30 03:23:42;;;;;;;12.67;5.53;;;16.20;99.90;;;;;;5053808;28;20213;-71
2023/09/30 03:26:09;;;;;;;16.93;5.10;;;16.10;99.90;;;;;;5052413;28;20434;-71
2023/09/30 03:28:38;;;;;;;12.00;6.30;;;16.10;99.90;;;;;;5052472;28;20510;-71
2023/09/30 03:31:05;;;;;;;13.63;5.37;;;16.10;99.90;;;;;;5053745;28;20434;-71
2023/09/30 03:33:35;;;;;;;13.50;5.30;;;16.00;99.90;;;;;;5035893;28;20434;-71
2023/09/30 03:36:00;;;;;;;22.23;6.47;;;15.90;99.90;;;;;;5053540;28;20857;-71
2023/09/30 03:38:26;;;;;;;10.27;5.43;;;16.00;99.90;;;;;;5052216;28;20470;-71
2023/09/30 03:40:54;;;;;;;16.27;6.57;;;15.90;99.90;;;;;;5052172;28;20275;-71
2023/09/30 03:43:21;;;;;;;10.33;5.73;;;15.80;99.90;;;;;;5053473;28;20974;-71
2023/09/30 03:45:47;;;;;;;13.07;5.83;;;15.80;99.90;;;;;;5052140;28;20441;-71
2023/09/30 03:48:12;;;;;;;14.37;4.67;;;15.80;99.90;;;;;;5052018;28;20459;-71
2023/09/30 03:50:38;;;;;;;11.70;5.63;;;15.80;99.90;;;;;;5051948;28;20191;-71
2023/09/30 03:53:04;;;;;;;11.60;5.70;;;15.70;99.90;;;;;;5051911;28;20229;-71
2023/09/30 03:55:31;;;;;;;13.60;6.00;;;15.80;99.90;;;;;;5053052;28;20688;-71
2023/09/30 03:57:57;;;;;;;15.03;6.20;;;15.80;99.90;;;;;;5053123;28;20841;-71
2023/09/30 04:00:24;;;;;;;13.60;6.13;;;15.70;99.90;;;;;;5053346;28;20510;-71
2023/09/30 04:02:53;;;;;;;13.07;5.87;;;15.60;99.90;;;;;;5051865;28;20427;-71
2023/09/30 04:05:19;;;;;;;16.20;6.07;;;15.70;99.90;;;;;;5052965;28;20450;-71
2023/09/30 04:07:45;;;;;;;13.47;5.47;;;15.70;99.90;;;;;;5052981;28;20939;-71
2023/09/30 04:10:10;;;;;;;11.00;5.00;;;15.60;99.90;;;;;;5053017;28;20545;-71
2023/09/30 04:12:36;;;;;;;13.87;5.43;;;15.50;99.90;;;;;;5051731;28;20418;-71
2023/09/30 04:15:05;;;;;;;10.10;4.47;;;15.50;99.90;;;;;;5052876;28;20291;-71
2023/09/30 04:17:32;;;;;;;10.90;4.80;;;15.60;99.90;;;;;;5052862;28;20455;-71
2023/09/30 04:19:57;;;;;;;12.87;5.10;;;15.60;99.90;;;;;;5052792;28;20423;-71
2023/09/30 04:22:25;;;;;;;11.27;5.07;;;15.70;99.90;;;;;;5052784;28;20520;-71
2023/09/30 04:24:50;;;;;;;11.47;4.57;;;15.70;99.90;;;;;;5051426;28;20226;-72
2023/09/30 04:27:16;;;;;;;12.30;4.67;;;15.70;99.90;;;;;;5052627;28;20457;-71
2023/09/30 04:29:42;;;;;;;9.83;3.90;;;15.70;99.90;;;;;;5051458;28;20576;-71
2023/09/30 04:32:07;;;;;;;12.20;4.67;;;15.80;99.90;;;;;;5051347;28;20188;-71
2023/09/30 04:34:33;;;;;;;14.03;4.63;;;15.70;99.90;;;;;;5051024;28;20440;-71
2023/09/30 04:36:59;;;;;;;9.80;4.77;;;15.70;99.90;;;;;;5052440;28;20196;-71
2023/09/30 04:39:25;;;;;;;7.37;3.43;;;15.70;99.90;;;;;;5034517;28;20195;-71
2023/09/30 04:41:50;;;;;;;10.53;4.80;;;15.80;99.90;;;;;;5051180;28;20418;-71
2023/09/30 04:44:16;;;;;;;8.50;3.87;;;15.80;99.90;;;;;;5052296;28;20286;-71
2023/09/30 04:46:45;;;;;;;13.80;4.40;;;15.80;99.90;;;;;;5052232;28;20723;-71
2023/09/30 04:49:14;;;;;;;8.03;3.80;;;15.80;99.90;;;;;;5034814;28;20211;-71
2023/09/30 04:51:40;;;;;;;8.40;3.93;;;15.80;99.90;;;;;;5052240;28;20459;-71
2023/09/30 04:54:08;;;;;;;8.80;3.87;;;15.80;99.90;;;;;;5050815;28;20449;-71
2023/09/30 04:56:35;;;;;;;8.50;4.83;;;15.80;99.90;;;;;;5052247;28;20582;-71
2023/09/30 04:59:01;;;;;;;13.37;4.80;;;15.80;99.90;;;;;;5052088;28;20506;-71
2023/09/30 05:01:28;;;;;;;8.80;4.47;;;15.80;99.90;;;;;;5050823;28;20861;-72
2023/09/30 05:03:54;;;;;;;9.07;4.43;;;15.90;99.90;;;;;;5050836;28;20807;-71
2023/09/30 05:06:21;;;;;;;8.40;4.00;;;15.90;99.90;;;;;;5051900;28;20434;-71
2023/09/30 05:08:47;;;;;;;8.57;3.77;;;15.80;99.90;;;;;;5051319;28;20254;-71
2023/09/30 05:11:13;;;;;;;11.63;4.50;;;15.80;99.90;;;;;;5051874;28;20501;-72
2023/09/30 05:13:39;;;;;;;11.73;5.20;;;15.80;99.90;;;;;;5050570;28;20490;-72
2023/09/30 05:16:07;;;;;;;12.30;4.30;;;15.80;99.90;;;;;;5051843;28;20494;-71
2023/09/30 05:18:33;;;;;;;8.43;4.53;;;15.80;99.90;;;;;;5051719;28;20174;-71
2023/09/30 05:20:58;;;;;;;7.80;4.37;;;15.90;99.90;;;;;;5051779;28;20794;-71
2023/09/30 05:23:24;;;;;;;11.50;5.13;;;15.80;99.90;;;;;;5050361;28;20511;-71
2023/09/30 05:25:49;;;;;;;9.40;4.50;;;15.80;99.90;;;;;;5051481;28;20208;-71
2023/09/30 05:28:15;;;;;;;12.63;4.40;;;15.80;99.90;;;;;;5051490;28;20307;-71
2023/09/30 05:30:41;;;;;;;8.43;4.10;;;15.80;99.90;;;;;;5051617;28;20184;-71
2023/09/30 05:33:07;;;;;;;8.13;4.00;;;15.80;99.90;;;;;;5033572;28;20185;-71
2023/09/30 05:35:32;;;;;;;9.33;4.70;;;15.90;99.90;;;;;;5050199;28;20200;-71
2023/09/30 05:37:58;;;;;;;13.63;4.90;;;15.90;99.90;;;;;;5050251;28;20426;-71
2023/09/30 05:40:25;;;;;;;8.70;4.17;;;15.90;99.90;;;;;;5051438;28;20185;-71
2023/09/30 05:42:58;;;;;;;11.73;4.60;;;15.90;99.90;;;;;;5051411;28;20186;-71
2023/09/30 05:45:26;;;;;;;8.50;4.10;;;15.90;99.90;;;;;;5051412;28;20799;-71
2023/09/30 05:47:52;;;;;;;9.00;4.77;;;16.00;99.90;;;;;;5051298;28;20456;-71
2023/09/30 05:50:23;;;;;;;14.17;4.87;;;15.90;99.90;;;;;;5051263;28;20462;-71
2023/09/30 05:52:50;;;;;;;11.70;4.53;;;15.90;99.90;;;;;;5051359;28;20468;-71
2023/09/30 05:55:22;;;;;;;16.63;6.10;;;15.90;99.90;;;;;;5049889;28;20457;-71
2023/09/30 05:57:51;;;;;;;14.97;5.73;;;15.80;99.90;;;;;;5051170;28;20453;-71
2023/09/30 06:00:21;;;;;;;9.57;4.70;;;15.60;99.90;;;;;;5051164;28;20507;-71
2023/09/30 06:02:48;;;;;;;10.57;4.53;;;15.50;99.90;;;;;;5050014;28;20426;-71
2023/09/30 06:05:15;;;;;;;10.87;4.40;;;15.50;99.90;;;;;;5051174;28;20444;-71
2023/09/30 06:07:45;;;;;;;11.87;5.20;;;15.60;99.90;;;;;;5049910;28;20987;-71
2023/09/30 06:10:10;;;;;;;10.80;4.90;;;15.70;99.90;;;;;;5051120;28;20426;-71
2023/09/30 06:12:36;;;;;;;10.43;4.63;;;15.70;99.90;;;;;;5051158;28;20523;-71
2023/09/30 06:15:02;;;;;;;11.00;5.10;;;15.80;99.90;;;;;;5049551;28;20499;-71
2023/09/30 06:17:28;;;;;;;13.47;5.90;;;15.90;99.90;;;;;;5049870;28;20193;-71
2023/09/30 06:19:54;;;;;;;12.40;5.70;;;15.90;99.90;;;;;;5051089;28;20917;-71
2023/09/30 06:22:21;;;;;;;9.97;4.90;;;15.90;99.90;;;;;;5054432;28;20177;-71
2023/09/30 06:24:48;;;;;;;9.57;4.67;;;15.90;99.90;;;;;;5053646;28;20620;-71
2023/09/30 06:27:13;;;;;;;10.17;5.80;;;16.00;99.90;;;;;;5053729;28;20467;-71
2023/09/30 06:29:40;;;;;;;9.97;4.90;;;16.00;99.90;;;;;;5054900;28;20473;-71
2023/09/30 06:32:07;;;;;;;9.47;4.83;;;16.10;99.90;;;;;;5054900;28;20173;-71
2023/09/30 06:34:34;;;;;;;10.23;4.70;;;16.10;99.90;;;;;;5054773;28;20440;-71
2023/09/30 06:37:00;;;;;;;8.37;5.30;;;16.20;99.90;;;;;;5053587;28;20434;-71
2023/09/30 06:39:25;;;;;;;13.37;5.30;;;16.20;99.90;;;;;;5054727;28;20451;-71
2023/09/30 06:41:51;;;;;;;11.23;4.70;;;16.20;99.90;;;;;;5054803;28;20250;-71
2023/09/30 06:44:17;;;;;;;13.20;6.30;;;16.20;99.90;;;;;;5054602;28;20292;-71
2023/09/30 06:46:43;;;;;;;12.87;5.40;;;16.10;99.90;;;;;;5054556;28;20424;-71
2023/09/30 06:49:08;;;;;;;12.87;5.70;;;16.10;99.90;;;;;;5054628;28;20418;-71
2023/09/30 06:51:34;;;;;;;13.40;5.03;;;16.20;99.90;;;;;;5054532;28;20422;-72
2023/09/30 06:54:00;;;;;;;9.80;5.00;;;16.30;99.90;;;;;;5053181;28;20265;-71
2023/09/30 06:56:26;;;;;;;10.60;5.00;;;16.20;99.90;;;;;;5054364;28;20286;-71
2023/09/30 06:58:52;;;;;;;15.90;6.00;;;16.30;99.90;;;;;;5053141;28;20788;-71
2023/09/30 07:01:18;;;;;;;8.80;4.60;;;16.30;99.90;;;;;;5054405;28;20442;-71
2023/09/30 07:03:43;;;;;;;13.70;6.00;;;16.40;99.90;;;;;;5054366;28;20192;-71
2023/09/30 07:06:09;;;;;;;17.60;5.60;;;16.40;99.90;;;;;;5052939;28;20697;-72
2023/09/30 07:08:35;;;;;;;11.30;5.63;;;16.50;99.90;;;;;;5054183;28;20213;-71
2023/09/30 07:11:01;;;;;;;10.73;6.27;;;16.60;99.90;;;;;;5054182;28;20592;-71
2023/09/30 07:13:27;;;;;;;9.77;5.30;;;16.70;99.90;;;;;;5036521;28;20666;-71
2023/09/30 07:15:53;;;;;;;11.20;5.77;;;16.70;99.90;;;;;;5054031;28;20442;-71
2023/09/30 07:18:18;;;;;;;14.57;5.27;;;16.80;99.90;;;;;;5054027;28;20189;-71
2023/09/30 07:20:44;;;;;;;14.50;6.17;;;16.70;99.90;;;;;;5053938;28;20188;-71
2023/09/30 07:23:10;;;;;;;17.23;5.23;;;16.70;99.90;;;;;;5053882;28;20197;-71
2023/09/30 07:25:35;;;;;;;12.03;4.93;;;16.70;99.90;;;;;;5053847;28;20205;-71
2023/09/30 07:28:01;;;;;;;11.10;5.03;;;16.70;99.90;;;;;;5053880;28;20211;-71
2023/09/30 07:30:27;;;;;;;13.60;6.27;;;16.80;99.90;;;;;;5052681;28;20192;-71
2023/09/30 07:32:53;;;;;;;9.27;5.00;;;16.80;99.90;;;;;;5053280;28;20416;-71
2023/09/30 07:35:18;;;;;;;9.00;4.63;;;16.80;99.90;;;;;;5052426;28;20208;-71
2023/09/30 07:37:44;;;;;;;8.30;4.53;;;16.90;99.90;;;;;;5053659;28;20190;-71
2023/09/30 07:40:10;;;;;;;10.53;6.27;;;17.00;99.90;;;;;;5052299;28;20192;-71
2023/09/30 07:42:36;;;;;;;8.90;4.37;;;17.00;99.90;;;;;;5053474;28;20196;-72
2023/09/30 07:45:03;;;;;;;8.90;5.00;;;17.10;99.90;;;;;;5053359;28;20451;-71
2023/09/30 07:47:31;;;;;;;9.67;4.63;;;17.10;99.90;;;;;;5053376;28;20263;-71
2023/09/30 07:49:56;;;;;;;9.30;4.90;;;17.10;99.90;;;;;;5052162;28;20428;-71
2023/09/30 07:52:22;;;;;;;13.60;5.90;;;17.20;99.90;;;;;;5035622;28;20490;-71
2023/09/30 07:54:47;;;;;;;8.83;5.43;;;17.20;99.90;;;;;;5052098;28;20232;-71
2023/09/30 07:57:13;;;;;;;11.23;5.60;;;17.00;99.90;;;;;;5051938;28;20192;-71
2023/09/30 07:59:39;;;;;;;12.33;5.27;;;16.90;99.90;;;;;;5035313;28;20548;-71
2023/09/30 08:02:04;;;;;;;11.73;5.40;;;16.90;99.90;;;;;;5053291;28;20193;-72
2023/09/30 08:04:31;;;;;;;9.40;5.30;;;17.00;99.90;;;;;;5051816;28;20213;-71
2023/09/30 08:06:56;;;;;;;8.57;5.50;;;17.30;99.90;;;;;;5053056;28;20210;-72
2023/09/30 08:09:23;;;;;;;8.07;4.90;;;17.30;99.90;;;;;;5053183;28;20410;-71
2023/09/30 08:11:50;;;;;;;9.40;4.83;;;17.30;99.90;;;;;;5051807;28;20433;-71
2023/09/30 08:14:16;;;;;;;13.50;4.67;;;17.30;99.90;;;;;;5052944;28;20448;-71
2023/09/30 08:16:42;;;;;;;11.13;4.70;;;17.30;99.90;;;;;;5053022;28;20416;-71
2023/09/30 08:19:08;;;;;;;15.33;5.97;;;17.40;99.90;;;;;;5052942;28;20172;-71
2023/09/30 08:21:34;;;;;;;14.17;6.03;;;17.50;99.90;;;;;;5051481;28;20427;-71
2023/09/30 08:24:01;;;;;;;10.53;4.80;;;17.50;99.90;;;;;;5052829;28;20429;-71
2023/09/30 08:26:27;;;;;;;10.83;4.80;;;17.50;99.90;;;;;;5052756;28;20189;-71
2023/09/30 08:28:52;;;;;;;17.00;5.10;;;17.60;99.90;;;;;;5052653;28;20471;-72
2023/09/30 08:31:19;;;;;;;10.43;4.17;;;17.70;99.90;;;;;;5052671;28;20189;-71
2023/09/30 08:33:45;;;;;;;8.73;4.70;;;17.80;99.90;;;;;;5052588;28;20272;-71
2023/09/30 08:36:11;;;;;;;8.67;4.80;;;17.90;99.90;;;;;;5051137;28;20916;-71
2023/09/30 08:38:38;;;;;;;9.03;4.43;;;18.10;99.90;;;;;;5052503;28;20784;-72
2023/09/30 08:41:05;;;;;;;7.83;4.70;;;18.40;99.90;;;;;;5051308;28;20418;-72
2023/09/30 08:43:31;;;;;;;7.53;3.97;;;18.50;99.90;;;;;;5050178;28;20464;-71
2023/09/30 08:45:59;;;;;;;10.50;5.27;;;18.80;99.90;;;;;;5051072;28;20484;-71
2023/09/30 08:48:27;;;;;;;13.10;4.60;;;18.90;99.90;;;;;;5050832;28;21097;-72
2023/09/30 08:50:57;;;;;;;7.33;4.93;;;19.00;99.90;;;;;;5052263;28;20459;-72
2023/09/30 08:53:23;;;;;;;10.60;5.20;;;19.10;99.90;;;;;;5052345;28;20419;-72
2023/09/30 08:55:54;;;;;;;8.30;5.13;;;19.00;99.90;;;;;;5050764;28;20440;-71
2023/09/30 08:58:22;;;;;;;11.00;4.80;;;19.00;99.90;;;;;;5050836;28;20466;-71
2023/09/30 09:00:49;;;;;;;9.77;4.63;;;19.00;99.90;;;;;;5050827;28;20439;-72
2023/09/30 09:03:14;;;;;;;8.37;5.10;;;19.40;99.90;;;;;;5050695;28;20423;-72
2023/09/30 09:05:40;;;;;;;13.03;5.73;;;19.40;99.90;;;;;;5051891;28;20449;-72
2023/09/30 09:08:06;;;;;;;7.10;4.40;;;19.40;99.90;;;;;;5051945;28;20214;-72
2023/09/30 09:10:31;;;;;;;11.87;4.40;;;19.70;99.90;;;;;;5051848;28;20431;-72
2023/09/30 09:12:58;;;;;;;6.67;4.23;;;20.20;99.90;;;;;;5051897;28;20187;-72
2023/09/30 09:15:30;;;;;;;11.37;4.43;;;20.60;99.90;;;;;;5051734;28;20204;-71
2023/09/30 09:17:57;;;;;;;9.60;5.40;;;20.80;99.90;;;;;;5050515;28;20431;-72
2023/09/30 09:20:25;;;;;;;7.67;4.10;;;21.20;99.90;;;;;;5051827;28;20431;-72
2023/09/30 09:22:55;;;;;;;11.90;5.33;;;21.30;99.90;;;;;;5051829;28;20456;-72
2023/09/30 09:25:25;;;;;;;11.33;4.97;;;21.90;99.90;;;;;;5051572;28;20438;-72
2023/09/30 09:27:54;;;;;;;10.47;4.90;;;22.20;99.90;;;;;;5050242;28;20553;-72
2023/09/30 09:30:27;;;;;;;9.30;4.70;;;22.60;99.90;;;;;;5051619;28;20973;-73
2023/09/30 09:33:05;;;;;;;9.47;4.10;;;22.70;99.90;;;;;;5051570;28;20789;-72
2023/09/30 09:35:35;;;;;;;9.50;4.53;;;22.70;99.90;;;;;;5050104;28;20476;-72
2023/09/30 09:38:03;;;;;;;9.23;5.00;;;22.70;99.90;;;;;;5050151;28;20429;-73
2023/09/30 09:40:36;;;;;;;6.30;4.30;;;22.90;99.90;;;;;;5051522;28;20427;-72
2023/09/30 09:43:06;;;;;;;7.00;4.30;;;22.90;99.90;;;;;;5051394;28;20981;-72
2023/09/30 09:45:37;;;;;;;11.53;4.37;;;23.00;99.90;;;;;;5051433;28;20536;-72
2023/09/30 09:48:04;;;;;;;7.40;4.20;;;23.40;99.90;;;;;;5051244;28;20559;-72
2023/09/30 09:50:31;;;;;;;12.07;5.10;;;23.60;99.90;;;;;;5051408;28;20454;-72
2023/09/30 09:53:00;;;;;;;8.07;4.90;;;23.90;99.90;;;;;;5051364;28;20783;-72
2023/09/30 09:55:27;;;;;;;8.63;4.40;;;23.80;99.90;;;;;;5050973;28;20474;-72
2023/09/30 09:57:53;;;;;;;9.10;4.13;;;23.70;99.90;;;;;;5051256;28;20445;-72
2023/09/30 10:00:23;;;;;;;11.27;5.00;;;23.70;99.90;;;;;;5051133;28;20452;-72
2023/09/30 10:02:50;;;;;;;13.37;5.57;;;23.30;99.90;;;;;;5051457;28;20799;-72
2023/09/30 10:05:17;;;;;;;9.77;4.60;;;23.10;99.90;;;;;;5051160;28;20443;-72
2023/09/30 10:08:04;;;;;;;11.30;5.33;;;22.80;99.90;;;;;;5033479;28;20827;-72
2023/09/30 10:10:35;;;;;;;8.43;4.90;;;23.30;99.90;;;;;;5051133;28;20421;-72
2023/09/30 10:13:02;;;;;;;9.40;4.60;;;23.90;99.90;;;;;;5049732;28;20426;-72
2023/09/30 10:15:28;;;;;;;11.20;4.77;;;24.30;99.90;;;;;;5049672;28;20537;-72
2023/09/30 10:17:58;;;;;;;12.00;5.97;;;24.40;99.90;;;;;;5051092;28;20548;-73
2023/09/30 10:20:31;;;;;;;13.50;5.77;;;24.50;99.90;;;;;;5051182;28;20598;-72
2023/09/30 10:23:21;;;;;;;10.23;5.00;;;24.80;99.90;;;;;;5049805;28;20449;-72
2023/09/30 10:25:49;;;;;;;12.60;6.30;;;24.70;98.60;;;;;;5050972;28;20470;-71
2023/09/30 10:28:33;;;;;;;9.30;5.67;;;23.80;99.90;;;;;;5049782;28;20497;-72
2023/09/30 10:31:13;;;;;;;12.40;5.70;;;23.20;99.90;;;;;;5050908;28;20414;-71
2023/09/30 10:34:00;;;;;;;10.03;4.90;;;22.80;99.90;;;;;;5051032;28;20413;-72
2023/09/30 10:36:32;;;;;;;11.63;5.50;;;22.60;99.90;;;;;;5049579;28;20414;-71
2023/09/30 10:38:58;;;;;;;11.23;5.77;;;22.60;99.90;;;;;;5051163;28;20421;-72
2023/09/30 10:41:45;;;;;;;14.03;6.83;;;23.00;99.90;;;;;;5049488;28;20525;-72
2023/09/30 10:44:25;;;;;;;14.00;7.53;;;23.60;98.20;;;;;;5049388;28;20421;-72
2023/09/30 10:46:55;;;;;;;17.03;8.40;;;23.40;99.30;;;;;;5050710;28;20422;-73
2023/09/30 10:49:24;;;;;;;19.37;7.90;;;24.00;97.00;;;;;;5049513;28;20416;-72
2023/09/30 10:51:50;;;;;;;17.80;7.80;;;24.10;97.60;;;;;;5050655;28;20414;-72
2023/09/30 10:54:23;;;;;;;18.93;8.43;;;23.50;97.30;;;;;;5050588;28;20464;-72
2023/09/30 10:56:49;;;;;;;15.60;7.07;;;23.20;98.90;;;;;;5050527;28;20457;-73
2023/09/30 10:59:30;;;;;;;13.10;6.57;;;23.00;98.90;;;;;;5050936;28;20516;-72
2023/09/30 11:01:56;;;;;;;14.40;7.20;;;22.80;98.60;;;;;;5050671;28;20169;-72
2023/09/30 11:04:22;;;;;;;14.47;6.77;;;23.00;98.50;;;;;;5050725;28;20489;-73
2023/09/30 11:06:47;;;;;;;13.90;6.67;;;23.00;97.60;;;;;;5049989;28;20425;-73
2023/09/30 11:09:21;;;;;;;14.30;7.40;;;23.30;97.70;;;;;;5054210;28;20429;-73
2023/09/30 11:11:52;;;;;;;13.50;7.40;;;23.30;96.60;;;;;;5054244;28;20176;-72
2023/09/30 11:14:30;;;;;;;15.60;7.20;;;23.40;97.60;;;;;;5054155;28;20458;-73
2023/09/30 11:17:03;;;;;;;12.67;6.30;;;23.80;98.00;;;;;;5053961;28;20941;-72
2023/09/30 11:19:55;;;;;;;14.40;7.03;;;23.70;97.50;;;;;;5054143;28;20504;-72
2023/09/30 11:22:21;;;;;;;13.20;6.37;;;23.40;97.80;;;;;;5053663;28;20950;-72
2023/09/30 11:24:47;;;;;;;14.40;7.00;;;23.60;97.30;;;;;;5053848;28;20423;-72
2023/09/30 11:27:13;;;;;;;12.57;6.50;;;23.80;98.30;;;;;;5052543;28;20766;-72
2023/09/30 11:29:49;;;;;;;14.00;7.30;;;23.70;97.70;;;;;;5035853;28;20414;-72
2023/09/30 11:32:26;;;;;;;16.37;8.00;;;23.90;95.90;;;;;;5052601;28;20271;-73
2023/09/30 11:34:52;;;;;;;15.80;7.43;;;24.10;96.70;;;;;;5053631;28;20430;-72
2023/09/30 11:37:18;;;;;;;14.07;8.13;;;24.40;96.90;;;;;;5053682;28;20428;-73
2023/09/30 11:39:44;;;;;;;17.27;7.67;;;24.50;96.20;;;;;;5053655;28;20489;-73
2023/09/30 11:42:17;;;;;;;16.27;8.00;;;24.70;96.50;;;;;;5053558;28;20177;-72
2023/09/30 11:44:47;;;;;;;17.00;7.47;;;24.70;95.30;;;;;;5052235;28;20496;-73
2023/09/30 11:47:14;;;;;;;16.23;8.23;;;24.40;95.30;;;;;;5053406;28;20880;-73
2023/09/30 11:49:44;;;;;;;16.57;7.73;;;24.50;94.00;;;;;;5053432;28;20420;-72
2023/09/30 11:52:11;;;;;;;18.63;9.17;;;24.40;95.50;;;;;;5053445;28;20976;-72
2023/09/30 11:54:45;;;;;;;19.13;9.27;;;24.30;93.60;;;;;;5053342;28;20423;-72
2023/09/30 11:57:15;;;;;;;20.67;9.57;;;24.30;94.90;;;;;;5053316;28;20438;-72
2023/09/30 11:59:42;;;;;;;16.60;8.17;;;24.20;94.30;;;;;;5053476;28;20485;-72
2023/09/30 12:02:12;;;;;;;16.60;8.50;;;24.20;93.60;;;;;;5053252;28;20419;-72
2023/09/30 12:04:38;;;;;;;15.83;8.13;;;24.00;93.90;;;;;;5053210;28;20452;-72
2023/09/30 12:07:06;;;;;;;19.43;7.83;;;24.10;95.60;;;;;;5053152;28;20470;-72
2023/09/30 12:09:32;;;;;;;15.40;7.97;;;24.30;96.50;;;;;;5053167;28;20472;-72
2023/09/30 12:11:58;;;;;;;16.17;8.30;;;24.60;94.60;;;;;;5053147;28;20833;-72
2023/09/30 12:14:24;;;;;;;15.60;8.30;;;24.80;94.30;;;;;;5051787;28;20197;-72
2023/09/30 12:16:50;;;;;;;16.97;9.50;;;24.90;92.90;;;;;;5051834;28;20177;-72
2023/09/30 12:19:20;;;;;;;16.43;8.77;;;24.70;92.50;;;;;;5053372;28;20407;-72
2023/09/30 12:21:48;;;;;;;19.40;9.13;;;24.40;92.10;;;;;;5052862;28;20410;-72
2023/09/30 12:24:16;;;;;;;19.33;8.00;;;24.10;92.50;;;;;;5052731;28;20424;-72
2023/09/30 12:26:47;;;;;;;21.00;9.43;;;23.70;93.30;;;;;;5051508;28;20427;-72
2023/09/30 12:29:17;;;;;;;17.80;8.60;;;23.40;93.10;;;;;;5051641;28;20422;-72
2023/09/30 12:31:47;;;;;;;19.07;9.53;;;23.20;93.60;;;;;;5052664;28;20511;-72
2023/09/30 12:34:13;;;;;;;19.50;9.50;;;22.80;93.30;;;;;;5051262;28;20427;-72
2023/09/30 12:36:39;;;;;;;23.73;10.60;;;22.70;94.30;;;;;;5051228;28;20505;-72
2023/09/30 12:39:10;;;;;;;19.50;9.07;;;22.60;93.30;;;;;;5051215;28;20189;-72
2023/09/30 12:41:40;;;;;;;22.77;9.73;;;22.40;93.50;;;;;;5052779;28;20434;-72
2023/09/30 12:44:09;;;;;;;25.47;8.70;;;22.20;93.20;;;;;;5052380;28;20465;-72
2023/09/30 12:46:36;;;;;;;25.93;9.10;;;22.10;93.50;;;;;;5052371;28;20458;-72